createdAt,value
2019-03-12T00:01:10.642Z,1.80
2019-03-12T00:03:41.400Z,1.80
2019-03-12T00:06:12.085Z,1.80
2019-03-12T00:08:42.811Z,1.80
2019-03-12T00:11:13.538Z,1.70
2019-03-12T00:13:44.305Z,1.70
2019-03-12T00:16:16.332Z,1.70
2019-03-12T00:18:47.141Z,1.80
2019-03-12T00:21:17.854Z,1.80
2019-03-12T00:23:48.630Z,1.80
2019-03-12T00:26:19.388Z,1.90
2019-03-12T00:28:50.123Z,1.80
2019-03-12T00:31:20.830Z,1.80
2019-03-12T00:33:51.628Z,1.70
2019-03-12T00:36:22.444Z,1.60
2019-03-12T00:38:53.243Z,1.60
2019-03-12T00:41:23.997Z,1.40
2019-03-12T00:43:54.701Z,1.40
2019-03-12T00:46:27.074Z,1.30
2019-03-12T00:48:58.074Z,1.30
2019-03-12T00:51:28.904Z,1.10
2019-03-12T00:53:59.617Z,1.10
2019-03-12T00:56:30.393Z,1.10
2019-03-12T00:59:01.081Z,1.10
2019-03-12T01:01:31.835Z,1.10
2019-03-12T01:04:02.592Z,1.00
2019-03-12T01:06:33.379Z,1.00
2019-03-12T01:09:05.358Z,1.00
2019-03-12T01:11:36.091Z,1.00
2019-03-12T01:14:06.827Z,1.00
2019-03-12T01:16:37.616Z,0.90
2019-03-12T01:19:08.376Z,1.00
2019-03-12T01:21:39.116Z,1.00
2019-03-12T01:24:09.833Z,1.00
2019-03-12T01:26:40.660Z,0.90
2019-03-12T01:29:11.417Z,0.90
2019-03-12T01:31:42.202Z,0.90
2019-03-12T01:34:12.949Z,0.90
2019-03-12T01:36:43.765Z,0.80
2019-03-12T01:39:14.581Z,0.80
2019-03-12T01:41:45.337Z,0.80
2019-03-12T01:44:16.054Z,0.80
2019-03-12T01:46:46.880Z,0.70
2019-03-12T01:49:17.626Z,0.70
2019-03-12T01:51:48.432Z,0.70
2019-03-12T01:54:20.080Z,0.60
2019-03-12T01:56:50.854Z,0.60
2019-03-12T01:59:21.620Z,0.60
2019-03-12T02:01:52.467Z,0.50
2019-03-12T02:04:23.174Z,0.50
2019-03-12T02:06:57.259Z,0.40
2019-03-12T02:09:26.326Z,0.40
2019-03-12T02:11:57.113Z,0.40
2019-03-12T02:14:29.489Z,0.40
2019-03-12T02:17:00.226Z,0.40
2019-03-12T02:19:30.932Z,0.30
2019-03-12T02:22:01.728Z,0.30
2019-03-12T02:24:32.565Z,0.30
2019-03-12T02:27:03.271Z,0.30
2019-03-12T02:29:34.221Z,0.30
2019-03-12T02:32:06.535Z,0.30
2019-03-12T02:34:37.351Z,0.20
2019-03-12T02:37:08.152Z,0.30
2019-03-12T02:39:38.887Z,0.20
2019-03-12T02:42:12.696Z,0.30
2019-03-12T02:44:41.987Z,0.30
2019-03-12T02:47:12.733Z,0.20
2019-03-12T02:49:43.518Z,0.20
2019-03-12T02:52:14.240Z,0.10
2019-03-12T02:54:45.032Z,0.10
2019-03-12T02:57:15.808Z,0.00
2019-03-12T02:59:46.562Z,0.00
2019-03-12T03:02:17.266Z,0.00
2019-03-12T03:04:48.047Z,0.00
2019-03-12T03:07:23.648Z,0.00
2019-03-12T03:09:54.392Z,0.00
2019-03-12T03:12:25.188Z,-0.10
2019-03-12T03:14:55.962Z,-0.10
2019-03-12T03:17:26.699Z,-0.10
2019-03-12T03:19:57.525Z,-0.10
2019-03-12T03:22:28.341Z,-0.10
2019-03-12T03:24:59.091Z,-0.10
2019-03-12T03:27:29.949Z,-0.10
2019-03-12T03:30:01.049Z,-0.20
2019-03-12T03:32:31.797Z,-0.20
2019-03-12T03:35:02.606Z,-0.10
2019-03-12T03:37:33.353Z,-0.10
2019-03-12T03:40:04.585Z,-0.10
2019-03-12T03:42:35.314Z,-0.10
2019-03-12T03:45:06.479Z,0.00
2019-03-12T03:47:37.225Z,0.00
2019-03-12T03:50:08.144Z,0.00
2019-03-12T03:52:38.941Z,-0.10
2019-03-12T03:55:11.699Z,-0.10
2019-03-12T03:57:42.471Z,-0.10
2019-03-12T04:00:16.387Z,-0.20
2019-03-12T04:02:47.195Z,-0.20
2019-03-12T04:05:18.021Z,-0.20
2019-03-12T04:07:48.906Z,-0.30
2019-03-12T04:10:19.674Z,-0.30
2019-03-12T04:12:50.443Z,-0.30
2019-03-12T04:15:21.188Z,-0.30
2019-03-12T04:17:51.967Z,-0.20
2019-03-12T04:20:22.709Z,-0.20
2019-03-12T04:22:53.616Z,-0.20
2019-03-12T04:25:24.600Z,-0.10
2019-03-12T04:27:55.466Z,-0.10
2019-03-12T04:30:26.219Z,-0.10
2019-03-12T04:32:57.050Z,0.00
2019-03-12T04:35:27.866Z,0.00
2019-03-12T04:37:58.681Z,0.00
2019-03-12T04:40:29.400Z,0.10
2019-03-12T04:43:00.204Z,0.10
2019-03-12T04:45:30.910Z,0.10
2019-03-12T04:48:01.716Z,0.20
2019-03-12T04:50:32.443Z,0.10
2019-03-12T04:53:04.429Z,0.20
2019-03-12T04:55:35.185Z,0.20
2019-03-12T04:58:05.962Z,0.30
2019-03-12T05:00:36.718Z,0.30
2019-03-12T05:03:07.485Z,0.30
2019-03-12T05:05:38.232Z,0.30
2019-03-12T05:08:09.027Z,0.30
2019-03-12T05:10:39.722Z,0.40
2019-03-12T05:13:10.490Z,0.40
2019-03-12T05:15:41.232Z,0.40
2019-03-12T05:18:11.983Z,0.50
2019-03-12T05:20:42.759Z,0.50
2019-03-12T05:23:13.495Z,0.50
2019-03-12T05:25:44.211Z,0.50
2019-03-12T05:28:14.920Z,0.50
2019-03-12T05:30:45.746Z,0.60
2019-03-12T05:33:16.469Z,0.60
2019-03-12T05:35:47.266Z,0.70
2019-03-12T05:38:18.043Z,0.60
2019-03-12T05:40:48.749Z,0.70
2019-03-12T05:43:19.477Z,0.70
2019-03-12T05:45:50.264Z,0.70
2019-03-12T05:48:20.997Z,0.80
2019-03-12T05:50:51.754Z,0.80
2019-03-12T05:53:28.332Z,0.70
2019-03-12T05:55:59.228Z,0.70
2019-03-12T05:58:29.975Z,0.70
2019-03-12T06:01:01.611Z,0.70
2019-03-12T06:03:32.388Z,0.70
2019-03-12T06:06:03.146Z,0.70
2019-03-12T06:08:33.869Z,0.70
2019-03-12T06:11:04.656Z,0.70
2019-03-12T06:13:35.428Z,0.70
2019-03-12T06:16:06.229Z,0.80
2019-03-12T06:18:36.929Z,0.80
2019-03-12T06:21:07.601Z,0.80
2019-03-12T06:23:38.347Z,1.00
2019-03-12T06:26:09.145Z,1.00
2019-03-12T06:28:39.870Z,1.10
2019-03-12T06:31:28.410Z,1.20
2019-03-12T06:34:06.287Z,1.30
2019-03-12T06:36:47.887Z,1.40
2019-03-12T06:39:28.576Z,1.60
2019-03-12T06:42:10.298Z,1.80
2019-03-12T06:44:57.074Z,1.90
2019-03-12T06:47:40.563Z,2.00
2019-03-12T06:50:39.337Z,2.00
2019-03-12T06:53:37.900Z,2.10
2019-03-12T06:56:36.413Z,2.20
2019-03-12T06:59:16.243Z,2.50
2019-03-12T07:02:03.908Z,2.60
2019-03-12T07:04:56.425Z,2.50
2019-03-12T07:07:45.918Z,2.50
2019-03-12T07:10:45.468Z,2.50
2019-03-12T07:13:35.178Z,2.50
2019-03-12T07:16:30.942Z,2.60
2019-03-12T07:19:18.190Z,2.50
2019-03-12T07:22:20.295Z,2.50
2019-03-12T07:24:59.323Z,2.70
2019-03-12T07:27:58.316Z,2.80
2019-03-12T07:30:36.506Z,2.80
2019-03-12T07:33:26.245Z,2.90
2019-03-12T07:36:09.315Z,2.70
2019-03-12T07:38:45.193Z,2.70
2019-03-12T07:41:34.884Z,2.70
2019-03-12T07:44:30.645Z,2.80
2019-03-12T07:47:35.170Z,3.30
2019-03-12T07:50:22.070Z,3.70
2019-03-12T07:53:20.852Z,4.00
2019-03-12T07:56:09.193Z,4.40
2019-03-12T07:59:09.170Z,4.70
2019-03-12T08:02:00.747Z,5.00
2019-03-12T08:04:49.428Z,5.20
2019-03-12T08:07:26.763Z,5.30
2019-03-12T08:10:15.065Z,5.10
2019-03-12T08:13:03.656Z,4.90
2019-03-12T08:15:50.576Z,4.80
2019-03-12T08:18:43.349Z,5.30
2019-03-12T08:21:32.029Z,5.90
2019-03-12T08:24:30.795Z,6.40
2019-03-12T08:27:32.466Z,6.90
2019-03-12T08:30:13.535Z,6.70
2019-03-12T08:33:03.856Z,7.10
2019-03-12T08:35:50.326Z,7.70
2019-03-12T08:38:55.122Z,8.10
2019-03-12T08:41:37.371Z,7.90
2019-03-12T08:44:13.677Z,7.40
2019-03-12T08:46:56.057Z,6.90
2019-03-12T08:49:45.938Z,6.60
2019-03-12T08:52:41.490Z,6.50
2019-03-12T08:55:31.539Z,6.80
2019-03-12T08:58:09.791Z,6.60
2019-03-12T09:00:59.510Z,6.40
2019-03-12T09:03:54.182Z,6.20
2019-03-12T09:06:42.803Z,6.20
2019-03-12T09:09:19.712Z,6.30
2019-03-12T09:12:06.084Z,6.40
2019-03-12T09:15:01.903Z,6.50
2019-03-12T09:17:49.074Z,6.80
2019-03-12T09:20:37.764Z,6.80
2019-03-12T09:23:36.777Z,6.90
2019-03-12T09:26:35.380Z,7.40
2019-03-12T09:29:21.343Z,7.60
2019-03-12T09:32:14.186Z,7.50
2019-03-12T09:35:12.805Z,8.20
2019-03-12T09:38:11.591Z,8.10
2019-03-12T09:41:13.522Z,7.80
2019-03-12T09:43:59.244Z,7.50
2019-03-12T09:46:39.151Z,7.30
2019-03-12T09:49:47.180Z,6.80
2019-03-12T09:52:32.966Z,6.90
2019-03-12T09:55:21.305Z,7.10
2019-03-12T09:58:10.088Z,7.00
2019-03-12T10:01:05.750Z,6.70
2019-03-12T10:03:58.671Z,6.20
2019-03-12T10:06:48.146Z,6.40
2019-03-12T10:09:41.043Z,6.30
2019-03-12T10:12:28.053Z,6.50
2019-03-12T10:15:20.765Z,7.00
2019-03-12T10:18:09.218Z,7.30
2019-03-12T10:21:04.960Z,7.60
2019-03-12T10:23:42.226Z,7.60
2019-03-12T10:26:23.226Z,7.60
2019-03-12T10:29:21.748Z,7.90
2019-03-12T10:32:06.407Z,8.20
2019-03-12T10:34:56.598Z,8.20
2019-03-12T10:37:46.273Z,8.60
2019-03-12T10:40:35.989Z,9.10
2019-03-12T10:43:29.741Z,9.00
2019-03-12T10:46:37.972Z,8.50
2019-03-12T10:49:08.743Z,9.00
2019-03-12T10:51:39.469Z,8.70
2019-03-12T10:54:10.246Z,8.30
2019-03-12T10:56:40.983Z,8.20
2019-03-12T10:59:11.749Z,8.00
2019-03-12T11:01:42.684Z,7.60
2019-03-12T11:04:13.450Z,7.20
2019-03-12T11:06:44.241Z,7.10
2019-03-12T11:09:14.982Z,7.10
2019-03-12T11:11:45.729Z,7.20
2019-03-12T11:14:16.448Z,7.20
2019-03-12T11:16:47.173Z,7.20
2019-03-12T11:19:17.889Z,7.10
2019-03-12T11:21:48.628Z,7.20
2019-03-12T11:24:38.466Z,7.30
2019-03-12T11:27:09.202Z,7.00
2019-03-12T11:29:39.848Z,7.00
2019-03-12T11:32:10.677Z,7.10
2019-03-12T11:34:41.401Z,7.20
2019-03-12T11:37:12.170Z,7.30
2019-03-12T11:39:42.924Z,7.30
2019-03-12T11:42:13.649Z,7.50
2019-03-12T11:44:44.496Z,7.60
2019-03-12T11:47:15.232Z,7.70
2019-03-12T11:49:46.039Z,7.80
2019-03-12T11:52:16.797Z,8.00
2019-03-12T11:54:47.636Z,7.90
2019-03-12T11:57:18.418Z,7.90
2019-03-12T11:59:49.194Z,8.00
2019-03-12T12:02:19.950Z,8.00
2019-03-12T12:04:50.937Z,7.80
2019-03-12T12:07:21.643Z,7.90
2019-03-12T12:09:52.421Z,7.80
2019-03-12T12:12:23.187Z,7.70
2019-03-12T12:14:53.972Z,7.50
2019-03-12T12:17:24.647Z,7.50
2019-03-12T12:19:55.418Z,7.40
2019-03-12T12:22:26.160Z,7.40
2019-03-12T12:24:56.944Z,7.60
2019-03-12T12:27:27.714Z,7.80
2019-03-12T12:29:58.482Z,7.90
2019-03-12T12:32:29.235Z,7.90
2019-03-12T12:35:00.030Z,7.80
2019-03-12T12:37:30.834Z,8.30
2019-03-12T12:40:01.537Z,8.80
2019-03-12T12:42:32.349Z,9.00
2019-03-12T12:45:03.198Z,9.00
2019-03-12T12:47:34.076Z,9.20
2019-03-12T12:50:05.851Z,9.20
2019-03-12T12:52:36.705Z,8.80
2019-03-12T12:55:08.345Z,8.70
2019-03-12T12:57:39.097Z,8.50
2019-03-12T13:00:13.655Z,8.50
2019-03-12T13:02:44.448Z,8.40
2019-03-12T13:05:15.648Z,8.20
2019-03-12T13:07:46.525Z,7.90
2019-03-12T13:10:20.054Z,7.60
2019-03-12T13:12:50.819Z,7.50
2019-03-12T13:15:21.574Z,7.70
2019-03-12T13:17:52.460Z,7.60
2019-03-12T13:20:23.198Z,7.50
2019-03-12T13:22:54.293Z,7.60
2019-03-12T13:25:25.128Z,7.70
2019-03-12T13:27:55.936Z,8.00
2019-03-12T13:30:26.810Z,8.10
2019-03-12T13:32:57.567Z,7.80
2019-03-12T13:35:28.304Z,7.70
2019-03-12T13:37:59.208Z,7.40
2019-03-12T13:40:30.055Z,7.30
2019-03-12T13:43:20.058Z,7.20
2019-03-12T13:45:50.793Z,7.00
2019-03-12T13:48:22.489Z,7.00
2019-03-12T13:50:53.275Z,7.20
2019-03-12T13:53:24.012Z,7.10
2019-03-12T13:55:54.737Z,7.20
2019-03-12T13:58:25.503Z,7.40
2019-03-12T14:00:56.339Z,7.70
2019-03-12T14:03:27.137Z,7.80
2019-03-12T14:05:57.842Z,8.00
2019-03-12T14:08:28.582Z,8.30
2019-03-12T14:10:59.665Z,9.00
2019-03-12T14:13:30.362Z,9.50
2019-03-12T14:16:00.997Z,9.50
2019-03-12T14:18:31.733Z,9.50
2019-03-12T14:21:11.282Z,9.40
2019-03-12T14:23:48.429Z,9.00
2019-03-12T14:26:19.066Z,9.20
2019-03-12T14:28:52.433Z,9.10
2019-03-12T14:31:22.145Z,8.40
2019-03-12T14:33:56.697Z,8.20
2019-03-12T14:36:27.412Z,8.20
2019-03-12T14:38:58.120Z,8.00
2019-03-12T14:41:28.746Z,7.80
2019-03-12T14:43:59.483Z,7.60
2019-03-12T14:46:30.178Z,7.50
2019-03-12T14:49:03.036Z,7.40
2019-03-12T14:52:17.137Z,7.30
2019-03-12T14:54:47.890Z,7.20
2019-03-12T14:57:18.495Z,7.10
2019-03-12T14:59:49.322Z,7.10
2019-03-12T15:02:21.600Z,7.20
2019-03-12T15:04:52.396Z,7.20
2019-03-12T15:07:23.132Z,7.20
2019-03-12T15:09:53.868Z,7.30
2019-03-12T15:12:24.534Z,7.30
2019-03-12T15:14:55.259Z,7.40
2019-03-12T15:17:26.046Z,7.30
2019-03-12T15:19:56.786Z,7.30
2019-03-12T15:22:27.499Z,7.30
2019-03-12T15:24:58.357Z,7.40
2019-03-12T15:27:29.141Z,7.30
2019-03-12T15:29:59.918Z,7.20
2019-03-12T15:32:30.623Z,7.10
2019-03-12T15:35:01.375Z,7.10
2019-03-12T15:37:32.127Z,7.10
2019-03-12T15:40:04.095Z,7.00
2019-03-12T15:42:34.853Z,7.00
2019-03-12T15:45:05.926Z,6.90
2019-03-12T15:47:38.935Z,6.90
2019-03-12T15:50:09.952Z,6.90
2019-03-12T15:52:40.765Z,6.80
2019-03-12T15:55:11.574Z,6.80
2019-03-12T15:57:42.198Z,6.70
2019-03-12T16:00:13.044Z,6.70
2019-03-12T16:02:43.770Z,6.80
2019-03-12T16:05:14.588Z,6.80
2019-03-12T16:07:45.313Z,6.80
2019-03-12T16:10:19.165Z,6.70
2019-03-12T16:12:48.447Z,6.80
2019-03-12T16:15:19.215Z,6.80
2019-03-12T16:17:50.027Z,6.80
2019-03-12T16:20:20.845Z,6.70
2019-03-12T16:22:51.602Z,6.70
2019-03-12T16:25:22.367Z,6.70
2019-03-12T16:27:54.204Z,6.60
2019-03-12T16:30:24.920Z,6.70
2019-03-12T16:32:55.707Z,6.60
2019-03-12T16:35:26.411Z,6.60
2019-03-12T16:37:57.126Z,6.60
2019-03-12T16:40:27.945Z,6.60
2019-03-12T16:42:58.691Z,6.60
2019-03-12T16:45:29.467Z,6.50
2019-03-12T16:48:00.334Z,6.50
2019-03-12T16:50:31.170Z,6.60
2019-03-12T16:53:01.897Z,6.60
2019-03-12T16:55:32.648Z,6.50
2019-03-12T16:58:03.422Z,6.50
2019-03-12T17:00:34.175Z,6.50
2019-03-12T17:03:05.344Z,6.50
2019-03-12T17:05:36.960Z,6.40
2019-03-12T17:08:07.734Z,6.40
2019-03-12T17:10:38.501Z,6.40
2019-03-12T17:13:09.247Z,6.30
2019-03-12T17:15:40.052Z,6.40
2019-03-12T17:18:10.839Z,6.40
2019-03-12T17:20:41.636Z,6.40
2019-03-12T17:23:12.482Z,6.40
2019-03-12T17:25:43.194Z,6.40
2019-03-12T17:28:13.964Z,6.40
2019-03-12T17:30:44.700Z,6.40
2019-03-12T17:33:15.477Z,6.40
2019-03-12T17:35:46.183Z,6.40
2019-03-12T17:38:17.018Z,6.30
2019-03-12T17:40:47.737Z,6.30
2019-03-12T17:43:18.542Z,6.40
2019-03-12T17:45:49.257Z,6.30
2019-03-12T17:48:20.267Z,6.40
2019-03-12T17:50:52.203Z,6.40
2019-03-12T17:53:23.107Z,6.40
2019-03-12T17:55:53.892Z,6.40
2019-03-12T17:58:24.621Z,6.50
2019-03-12T18:00:55.288Z,6.50
2019-03-12T18:03:26.023Z,6.40
2019-03-12T18:05:56.758Z,6.40
2019-03-12T18:08:27.508Z,6.40
2019-03-12T18:10:58.451Z,6.40
2019-03-12T18:13:29.315Z,6.50
2019-03-12T18:16:00.035Z,6.40
2019-03-12T18:18:31.760Z,6.40
2019-03-12T18:21:02.492Z,6.40
2019-03-12T18:23:33.245Z,6.30
2019-03-12T18:26:05.389Z,6.30
2019-03-12T18:28:36.085Z,6.30
2019-03-12T18:31:06.845Z,6.40
2019-03-12T18:33:37.599Z,6.50
2019-03-12T18:36:08.315Z,6.50
2019-03-12T18:38:39.000Z,6.40
2019-03-12T18:41:09.769Z,6.50
2019-03-12T18:43:40.454Z,6.40
2019-03-12T18:46:11.382Z,6.50
2019-03-12T18:48:44.439Z,6.50
2019-03-12T18:51:14.482Z,6.50
2019-03-12T18:53:45.158Z,6.50
2019-03-12T18:56:15.925Z,6.50
2019-03-12T18:58:46.723Z,6.40
2019-03-12T19:01:17.750Z,6.50
2019-03-12T19:03:48.648Z,6.40
2019-03-12T19:06:19.515Z,6.40
2019-03-12T19:08:50.200Z,6.40
2019-03-12T19:11:20.962Z,6.40
2019-03-12T19:13:51.681Z,6.30
2019-03-12T19:16:22.478Z,6.30
2019-03-12T19:18:53.247Z,6.30
2019-03-12T19:21:24.007Z,6.30
2019-03-12T19:23:54.744Z,6.30
2019-03-12T19:26:25.583Z,6.30
2019-03-12T19:28:56.330Z,6.30
2019-03-12T19:31:46.047Z,6.30
2019-03-12T19:34:28.190Z,6.30
2019-03-12T19:36:58.883Z,6.20
2019-03-12T19:39:29.890Z,6.20
2019-03-12T19:42:00.594Z,6.30
2019-03-12T19:44:31.292Z,6.40
2019-03-12T19:47:04.585Z,6.50
2019-03-12T19:49:34.424Z,6.50
2019-03-12T19:52:05.170Z,6.50
2019-03-12T19:54:35.958Z,6.50
2019-03-12T19:57:06.753Z,6.50
2019-03-12T19:59:37.483Z,6.40
2019-03-12T20:02:16.154Z,6.40
2019-03-12T20:04:47.240Z,6.40
2019-03-12T20:07:14.004Z,6.40
2019-03-12T20:10:12.562Z,6.40
2019-03-12T20:13:04.534Z,6.40
2019-03-12T20:16:07.027Z,6.40
2019-03-12T20:19:09.731Z,6.40
2019-03-12T20:22:24.298Z,6.50
2019-03-12T20:25:54.379Z,6.50
2019-03-12T20:29:27.293Z,6.60
2019-03-12T20:32:48.247Z,6.60
2019-03-12T20:36:05.835Z,6.60
2019-03-12T20:39:13.214Z,6.60
2019-03-12T20:42:21.127Z,6.60
2019-03-12T20:45:43.717Z,6.70
2019-03-12T20:49:10.271Z,6.70
2019-03-12T20:52:11.207Z,6.70
2019-03-12T20:55:19.003Z,6.70
2019-03-12T20:58:36.721Z,6.80
2019-03-12T21:02:03.722Z,7.00
2019-03-12T21:05:00.437Z,7.10
2019-03-12T21:08:12.439Z,7.30
2019-03-12T21:11:49.373Z,7.30
2019-03-12T21:15:02.133Z,7.30
2019-03-12T21:18:24.788Z,7.40
2019-03-12T21:21:35.406Z,7.50
2019-03-12T21:24:45.028Z,7.50
2019-03-12T21:27:25.397Z,7.70
2019-03-12T21:29:54.614Z,7.70
2019-03-12T21:32:25.561Z,7.70
2019-03-12T21:34:56.370Z,7.80
2019-03-12T21:37:27.073Z,7.80
2019-03-12T21:39:57.910Z,7.90
2019-03-12T21:42:28.691Z,7.80
2019-03-12T21:44:59.463Z,7.90
2019-03-12T21:47:30.194Z,7.90
2019-03-12T21:50:00.951Z,7.90
2019-03-12T21:52:31.703Z,7.80
2019-03-12T21:55:02.438Z,7.80
2019-03-12T21:57:33.104Z,7.80
2019-03-12T22:00:03.931Z,7.90
2019-03-12T22:02:36.760Z,8.00
2019-03-12T22:05:07.647Z,7.90
2019-03-12T22:07:38.290Z,7.80
2019-03-12T22:10:09.730Z,7.80
2019-03-12T22:12:40.393Z,7.80
2019-03-12T22:15:11.250Z,7.70
2019-03-12T22:17:41.986Z,7.70
2019-03-12T22:20:12.892Z,7.80
2019-03-12T22:22:51.402Z,7.70
2019-03-12T22:25:22.171Z,7.40
2019-03-12T22:27:52.875Z,7.20
2019-03-12T22:30:24.666Z,7.10
2019-03-12T22:32:55.357Z,7.00
2019-03-12T22:35:26.005Z,6.90
2019-03-12T22:37:56.720Z,6.90
2019-03-12T22:40:27.486Z,6.80
2019-03-12T22:42:58.193Z,6.60
2019-03-12T22:45:28.958Z,6.50
2019-03-12T22:47:59.577Z,6.30
2019-03-12T22:50:30.304Z,6.10
2019-03-12T22:53:01.008Z,6.00
2019-03-12T22:55:31.745Z,6.00
2019-03-12T22:58:02.481Z,5.90
2019-03-12T23:00:38.280Z,5.80
2019-03-12T23:03:09.050Z,5.80
2019-03-12T23:05:39.802Z,5.30
2019-03-12T23:08:10.671Z,4.70
2019-03-12T23:10:42.705Z,4.30
2019-03-12T23:13:14.614Z,4.10
2019-03-12T23:15:45.348Z,3.90
2019-03-12T23:18:16.073Z,3.80
2019-03-12T23:20:46.793Z,3.70
2019-03-12T23:23:17.537Z,3.70
2019-03-12T23:25:48.232Z,3.70
2019-03-12T23:28:18.950Z,3.70
2019-03-12T23:30:49.706Z,3.80
2019-03-12T23:33:20.543Z,3.70
2019-03-12T23:35:51.238Z,3.80
2019-03-12T23:38:22.064Z,3.80
2019-03-12T23:40:52.911Z,3.80
2019-03-12T23:43:23.738Z,3.90
2019-03-12T23:45:54.514Z,3.90
2019-03-12T23:48:25.220Z,3.80
2019-03-12T23:50:55.956Z,3.80
2019-03-12T23:53:26.713Z,3.70
2019-03-12T23:55:57.429Z,3.70
2019-03-12T23:58:31.957Z,3.70
